Time;durP1;ratioP1;P1;durP2;ratioP2;P2;SDS_P1;SDS_P2;PMS_P1;PMS_P2;Temp;Humidity;BMP_temperature;BMP_pressure;BME280_temperature;BME280_humidity;BME280_pressure;Samples;Min_cycle;Max_cycle;Signal;HPM_P1;HPM_P2
2023/12/14 00:01:22;;;;;;;4.55;2.60;;;7.60;99.90;;;;;;6122716;23;20026;-66
2023/12/14 00:03:48;;;;;;;6.60;3.53;;;7.60;99.90;;;;;;6121980;23;20422;-65
2023/12/14 00:06:14;;;;;;;6.07;3.33;;;7.60;99.90;;;;;;6122669;23;20049;-65
2023/12/14 00:08:40;;;;;;;5.20;2.97;;;7.60;99.90;;;;;;6122236;23;20069;-65
2023/12/14 00:11:07;;;;;;;5.20;2.70;;;7.60;99.90;;;;;;6121652;23;20002;-65
2023/12/14 00:13:33;;;;;;;5.85;3.25;;;7.60;99.90;;;;;;6122504;23;20319;-65
2023/12/14 00:15:59;;;;;;;6.38;3.58;;;7.60;99.90;;;;;;6122143;23;20006;-65
2023/12/14 00:18:25;;;;;;;5.32;3.05;;;7.60;99.90;;;;;;6122036;23;20014;-64
2023/12/14 00:20:50;;;;;;;5.20;2.90;;;7.50;99.90;;;;;;6121414;23;20064;-64
2023/12/14 00:23:16;;;;;;;5.22;3.15;;;7.50;99.90;;;;;;6121767;23;20006;-65
2023/12/14 00:25:42;;;;;;;3.67;2.30;;;7.50;99.90;;;;;;6122300;23;20449;-65
2023/12/14 00:28:07;;;;;;;6.90;3.88;;;7.50;99.90;;;;;;6121682;23;20032;-65
2023/12/14 00:30:33;;;;;;;6.68;3.90;;;7.50;99.90;;;;;;6120878;23;20006;-64
2023/12/14 00:32:58;;;;;;;8.07;4.30;;;7.40;99.90;;;;;;6121835;23;20064;-66
2023/12/14 00:35:24;;;;;;;6.63;3.67;;;7.40;99.90;;;;;;6122111;23;20447;-66
2023/12/14 00:37:49;;;;;;;6.93;3.92;;;7.30;99.90;;;;;;6095587;23;20029;-65
2023/12/14 00:40:15;;;;;;;5.82;3.30;;;7.30;99.90;;;;;;6121185;23;20033;-64
2023/12/14 00:42:40;;;;;;;4.40;2.42;;;7.30;99.90;;;;;;6122433;23;20033;-65
2023/12/14 00:45:06;;;;;;;3.90;2.42;;;7.30;99.90;;;;;;6121995;23;19998;-65
2023/12/14 00:47:32;;;;;;;5.53;2.80;;;7.40;99.90;;;;;;6121031;23;20355;-66
2023/12/14 00:49:57;;;;;;;5.68;3.08;;;7.40;99.90;;;;;;6121201;23;20009;-66
2023/12/14 00:52:23;;;;;;;5.55;3.20;;;7.40;99.90;;;;;;6121789;23;20002;-65
2023/12/14 00:54:48;;;;;;;4.28;2.67;;;7.40;99.90;;;;;;6121525;23;20320;-64
2023/12/14 00:57:14;;;;;;;4.43;2.83;;;7.40;99.90;;;;;;6121656;23;20006;-65
2023/12/14 00:59:40;;;;;;;4.78;2.80;;;7.40;99.90;;;;;;6121435;23;20001;-66
2023/12/14 01:02:06;;;;;;;5.50;2.90;;;7.50;99.90;;;;;;6096231;23;20002;-65
2023/12/14 01:04:32;;;;;;;4.70;2.97;;;7.40;99.90;;;;;;6096350;23;20002;-66
2023/12/14 01:06:58;;;;;;;4.00;2.60;;;7.40;99.90;;;;;;6121057;23;20002;-66
2023/12/14 01:09:24;;;;;;;5.97;3.42;;;7.40;99.90;;;;;;6095188;23;20009;-65
2023/12/14 01:11:49;;;;;;;6.22;3.40;;;7.40;99.90;;;;;;6122260;23;19999;-65
2023/12/14 01:14:15;;;;;;;6.50;3.80;;;7.40;99.90;;;;;;6122282;23;20006;-67
2023/12/14 01:16:40;;;;;;;5.32;3.33;;;7.40;99.90;;;;;;6096805;23;20458;-66
2023/12/14 01:19:06;;;;;;;5.80;3.42;;;7.30;99.90;;;;;;6121760;23;19998;-65
2023/12/14 01:21:32;;;;;;;5.28;3.33;;;7.30;99.90;;;;;;6122275;23;20008;-65
2023/12/14 01:23:58;;;;;;;5.50;3.50;;;7.30;99.90;;;;;;6121122;23;20371;-66
2023/12/14 01:26:23;;;;;;;6.45;3.72;;;7.20;99.90;;;;;;6121052;23;20037;-67
2023/12/14 01:28:49;;;;;;;6.35;3.42;;;7.20;99.90;;;;;;6120739;23;20010;-66
2023/12/14 01:31:14;;;;;;;4.97;2.80;;;7.20;99.90;;;;;;6095596;23;20447;-66
2023/12/14 01:33:40;;;;;;;4.07;2.72;;;7.30;99.90;;;;;;6119495;23;20071;-66
2023/12/14 01:36:06;;;;;;;4.20;2.72;;;7.30;99.90;;;;;;6120762;23;20002;-67
2023/12/14 01:38:31;;;;;;;4.20;2.67;;;7.40;99.90;;;;;;6121172;23;20682;-67
2023/12/14 01:40:58;;;;;;;5.13;2.80;;;7.40;99.90;;;;;;6119942;23;20006;-64
2023/12/14 01:43:23;;;;;;;4.68;2.70;;;7.40;99.90;;;;;;6120306;23;20025;-66
2023/12/14 01:45:49;;;;;;;5.57;3.30;;;7.40;99.80;;;;;;6095692;23;20002;-67
2023/12/14 01:48:14;;;;;;;4.65;2.88;;;7.40;99.70;;;;;;6121412;23;20085;-66
2023/12/14 01:50:40;;;;;;;5.70;3.42;;;7.40;99.70;;;;;;6121232;23;20014;-66
2023/12/14 01:53:05;;;;;;;4.63;3.10;;;7.30;99.70;;;;;;6121288;23;20108;-64
2023/12/14 01:55:31;;;;;;;5.22;3.15;;;7.30;99.70;;;;;;6121489;23;20005;-65
2023/12/14 01:57:56;;;;;;;5.60;3.30;;;7.30;99.70;;;;;;6121290;23;20080;-66
2023/12/14 02:00:48;;;;;;;5.97;3.83;;;7.30;99.70;;;;;;6118243;23;20049;-65
2023/12/14 02:03:15;;;;;;;5.45;3.25;;;7.30;99.60;;;;;;6120213;23;20042;-65
2023/12/14 02:05:40;;;;;;;4.18;2.70;;;7.30;99.70;;;;;;6121474;23;20074;-65
2023/12/14 02:08:07;;;;;;;4.15;2.75;;;7.30;99.70;;;;;;6121118;23;20025;-65
2023/12/14 02:10:32;;;;;;;4.95;2.92;;;7.30;99.70;;;;;;6120770;23;20002;-64
2023/12/14 02:12:58;;;;;;;4.57;3.03;;;7.30;99.60;;;;;;6122426;23;20021;-66
2023/12/14 02:15:23;;;;;;;3.70;2.42;;;7.30;99.50;;;;;;6123956;23;20002;-65
2023/12/14 02:17:49;;;;;;;4.28;2.60;;;7.30;99.40;;;;;;6122747;23;20010;-64
2023/12/14 02:20:14;;;;;;;5.30;3.10;;;7.30;99.60;;;;;;6122814;23;20033;-66
2023/12/14 02:22:50;;;;;;;5.68;3.03;;;7.30;99.50;;;;;;6124040;23;20300;-65
2023/12/14 02:25:16;;;;;;;4.60;2.70;;;7.30;99.60;;;;;;6124742;23;20078;-65
2023/12/14 02:27:42;;;;;;;4.38;2.58;;;7.40;99.50;;;;;;6121737;23;20006;-66
2023/12/14 02:30:08;;;;;;;4.47;2.70;;;7.40;99.40;;;;;;6120945;23;20369;-65
2023/12/14 02:32:34;;;;;;;5.00;3.40;;;7.40;99.40;;;;;;6121913;23;20435;-66
2023/12/14 02:34:59;;;;;;;4.45;2.92;;;7.30;99.30;;;;;;6122150;23;20002;-65
2023/12/14 02:37:25;;;;;;;7.15;3.83;;;7.30;99.40;;;;;;6094300;23;20026;-65
2023/12/14 02:39:51;;;;;;;5.65;3.42;;;7.30;99.40;;;;;;6121436;23;20010;-66
2023/12/14 02:42:16;;;;;;;5.25;3.13;;;7.20;99.40;;;;;;6122279;23;20131;-66
2023/12/14 02:44:42;;;;;;;3.78;2.50;;;7.30;99.40;;;;;;6121309;23;20005;-67
2023/12/14 02:47:07;;;;;;;3.90;2.30;;;7.30;99.40;;;;;;6095071;23;20045;-65
2023/12/14 02:49:33;;;;;;;4.22;2.20;;;7.30;99.30;;;;;;6122595;23;20407;-67
2023/12/14 02:51:59;;;;;;;3.85;2.42;;;7.30;99.20;;;;;;6124300;23;19998;-67
2023/12/14 02:54:24;;;;;;;3.75;2.38;;;7.30;99.30;;;;;;6124438;23;19998;-66
2023/12/14 02:56:50;;;;;;;4.07;2.70;;;7.30;99.30;;;;;;6122342;23;19994;-66
2023/12/14 02:59:15;;;;;;;5.07;2.47;;;7.30;99.40;;;;;;6123408;23;20005;-66
2023/12/14 03:01:41;;;;;;;4.43;2.80;;;7.40;99.30;;;;;;6122503;23;20022;-65
2023/12/14 03:04:07;;;;;;;4.68;2.83;;;7.40;99.20;;;;;;6123447;23;20002;-66
2023/12/14 03:06:33;;;;;;;5.03;2.90;;;7.40;99.20;;;;;;6123102;23;20033;-66
2023/12/14 03:08:58;;;;;;;5.63;3.38;;;7.30;99.10;;;;;;6123575;23;20001;-65
2023/12/14 03:11:24;;;;;;;6.05;3.40;;;7.30;99.10;;;;;;6124773;23;20008;-65
2023/12/14 03:13:50;;;;;;;5.07;2.92;;;7.30;99.10;;;;;;6123079;23;20077;-65
2023/12/14 03:16:18;;;;;;;5.22;2.97;;;7.30;99.20;;;;;;6124691;23;20006;-64
2023/12/14 03:18:44;;;;;;;5.00;3.25;;;7.30;99.10;;;;;;6123157;23;20387;-64
2023/12/14 03:21:10;;;;;;;4.32;2.80;;;7.30;99.10;;;;;;6124099;23;20002;-66
2023/12/14 03:23:35;;;;;;;5.40;3.35;;;7.30;99.10;;;;;;6098466;23;20025;-65
2023/12/14 03:26:01;;;;;;;4.10;2.78;;;7.30;99.00;;;;;;6123480;23;20006;-66
2023/12/14 03:28:27;;;;;;;4.43;3.05;;;7.30;99.00;;;;;;6122840;23;20057;-66
2023/12/14 03:30:53;;;;;;;4.70;2.80;;;7.20;98.90;;;;;;6122163;23;20423;-66
2023/12/14 03:33:19;;;;;;;5.57;3.08;;;7.20;98.80;;;;;;6121986;23;20081;-66
2023/12/14 03:35:46;;;;;;;4.70;3.08;;;7.20;98.80;;;;;;6123008;23;20402;-65
2023/12/14 03:38:14;;;;;;;4.35;3.00;;;7.20;98.90;;;;;;6095823;23;20002;-66
2023/12/14 03:40:40;;;;;;;4.05;2.72;;;7.20;98.80;;;;;;6121187;23;20006;-66
2023/12/14 03:43:05;;;;;;;4.40;3.00;;;7.20;98.90;;;;;;6122084;23;20002;-66
2023/12/14 03:45:31;;;;;;;5.13;3.30;;;7.20;98.80;;;;;;6122991;23;20006;-65
2023/12/14 03:47:56;;;;;;;5.85;3.33;;;7.20;98.80;;;;;;6122312;23;20081;-65
2023/12/14 03:50:22;;;;;;;4.35;2.80;;;7.20;98.80;;;;;;6121594;23;20085;-64
2023/12/14 03:52:48;;;;;;;3.95;2.55;;;7.20;98.80;;;;;;6123008;23;20002;-66
2023/12/14 03:55:17;;;;;;;4.32;2.60;;;7.20;98.80;;;;;;6122437;23;20013;-66
2023/12/14 03:57:42;;;;;;;3.53;2.30;;;7.20;98.80;;;;;;6122416;23;20446;-66
2023/12/14 04:00:12;;;;;;;3.53;2.40;;;7.20;98.70;;;;;;6121903;23;20006;-65
2023/12/14 04:02:38;;;;;;;3.45;2.15;;;7.20;98.70;;;;;;6122705;23;20137;-64
2023/12/14 04:05:04;;;;;;;3.45;2.30;;;7.20;98.60;;;;;;6122459;23;20037;-64
2023/12/14 04:07:30;;;;;;;4.60;3.00;;;7.20;98.70;;;;;;6121958;23;19998;-65
2023/12/14 04:09:56;;;;;;;3.55;2.60;;;7.20;98.70;;;;;;6120901;23;20049;-65
2023/12/14 04:12:21;;;;;;;3.80;2.58;;;7.20;98.70;;;;;;6122060;23;20033;-65
2023/12/14 04:14:47;;;;;;;3.78;2.60;;;7.20;98.70;;;;;;6122115;23;20030;-66
2023/12/14 04:17:12;;;;;;;3.22;2.28;;;7.20;98.70;;;;;;6121863;23;20002;-66
2023/12/14 04:19:39;;;;;;;3.97;2.28;;;7.20;98.60;;;;;;6121508;23;20017;-66
2023/12/14 04:22:04;;;;;;;3.38;2.30;;;7.30;98.60;;;;;;6122104;23;20501;-67
2023/12/14 04:24:30;;;;;;;3.30;2.20;;;7.30;98.60;;;;;;6122284;23;19998;-67
2023/12/14 04:26:56;;;;;;;3.40;2.15;;;7.30;98.50;;;;;;6120771;23;19998;-66
2023/12/14 04:29:21;;;;;;;4.68;2.55;;;7.30;98.50;;;;;;6122514;23;20065;-65
2023/12/14 04:31:48;;;;;;;3.90;2.50;;;7.30;98.40;;;;;;6122731;23;20017;-66
2023/12/14 04:34:15;;;;;;;3.08;2.20;;;7.30;98.50;;;;;;6123784;23;19998;-64
2023/12/14 04:36:42;;;;;;;3.40;2.40;;;7.30;98.60;;;;;;6124101;23;20002;-66
2023/12/14 04:39:07;;;;;;;3.72;2.45;;;7.30;98.60;;;;;;6123140;23;20002;-66
2023/12/14 04:41:33;;;;;;;3.97;2.63;;;7.30;98.60;;;;;;6121444;23;20631;-65
2023/12/14 04:43:58;;;;;;;2.85;2.00;;;7.40;98.50;;;;;;6123250;23;20415;-66
2023/12/14 04:46:24;;;;;;;3.15;2.25;;;7.30;98.40;;;;;;6122322;23;20035;-64
2023/12/14 04:48:49;;;;;;;3.35;2.38;;;7.30;98.40;;;;;;6121135;23;20001;-66
2023/12/14 04:51:15;;;;;;;4.38;2.75;;;7.30;98.40;;;;;;6121934;23;20006;-66
2023/12/14 04:53:41;;;;;;;4.45;2.90;;;7.30;98.40;;;;;;6095339;23;20006;-65
2023/12/14 04:56:11;;;;;;;4.32;2.58;;;7.30;98.40;;;;;;6121630;23;20002;-66
2023/12/14 04:58:38;;;;;;;3.58;2.40;;;7.40;98.40;;;;;;6095759;23;20033;-65
2023/12/14 05:01:03;;;;;;;3.30;2.42;;;7.40;98.30;;;;;;6120571;23;20085;-66
2023/12/14 05:03:29;;;;;;;4.70;2.80;;;7.30;98.30;;;;;;6121256;23;20455;-65
2023/12/14 05:05:54;;;;;;;4.07;2.50;;;7.20;98.30;;;;;;6121503;23;20006;-65
2023/12/14 05:08:20;;;;;;;4.13;2.88;;;7.30;98.40;;;;;;6121815;23;20342;-65
2023/12/14 05:10:46;;;;;;;3.58;2.65;;;7.30;98.60;;;;;;6094858;23;20703;-66
2023/12/14 05:13:11;;;;;;;4.03;2.60;;;7.20;98.30;;;;;;6121618;23;20923;-65
2023/12/14 05:15:37;;;;;;;3.28;2.42;;;7.20;98.30;;;;;;6122148;23;20446;-66
2023/12/14 05:18:02;;;;;;;3.70;2.13;;;7.20;98.50;;;;;;6120721;23;20002;-64
2023/12/14 05:20:28;;;;;;;3.25;2.10;;;7.20;98.30;;;;;;6095646;23;20009;-66
2023/12/14 05:22:54;;;;;;;3.72;2.40;;;7.30;98.50;;;;;;6120638;23;20072;-66
2023/12/14 05:25:19;;;;;;;3.88;2.60;;;7.20;98.30;;;;;;6096089;23;20002;-66
2023/12/14 05:27:46;;;;;;;3.53;2.22;;;7.20;98.30;;;;;;6121554;23;20510;-66
2023/12/14 05:30:13;;;;;;;2.78;2.10;;;7.20;98.30;;;;;;6095215;23;20072;-66
2023/12/14 05:32:38;;;;;;;3.72;2.50;;;7.30;98.40;;;;;;6121788;23;20006;-65
2023/12/14 05:35:04;;;;;;;3.08;2.17;;;7.20;98.30;;;;;;6121166;23;20430;-66
2023/12/14 05:37:30;;;;;;;4.10;2.50;;;7.20;98.40;;;;;;6122225;23;20009;-66
2023/12/14 05:39:55;;;;;;;3.60;2.20;;;7.20;98.30;;;;;;6119959;23;20010;-66
2023/12/14 05:42:21;;;;;;;3.20;2.45;;;7.20;98.30;;;;;;6122264;23;20157;-64
2023/12/14 05:44:47;;;;;;;3.75;2.25;;;7.20;98.30;;;;;;6122406;23;20013;-64
2023/12/14 05:47:12;;;;;;;4.07;2.50;;;7.20;98.40;;;;;;6122272;23;20025;-66
2023/12/14 05:49:44;;;;;;;3.38;2.30;;;7.20;98.40;;;;;;6120906;23;20002;-66
2023/12/14 05:52:10;;;;;;;;;;;7.20;98.40;;;;;;6121865;23;20053;-65
2023/12/14 05:54:37;;;;;;;4.25;2.20;;;7.10;98.30;;;;;;6095746;23;19905;-65
2023/12/14 05:57:03;;;;;;;3.20;2.10;;;7.10;98.40;;;;;;6121304;23;20005;-66
2023/12/14 05:59:28;;;;;;;4.13;2.70;;;7.10;98.50;;;;;;6120293;23;20110;-66
2023/12/14 06:01:58;;;;;;;3.92;2.38;;;7.10;98.50;;;;;;6121151;23;20442;-65
2023/12/14 06:04:25;;;;;;;4.32;2.75;;;7.10;98.50;;;;;;6120871;23;20100;-65
2023/12/14 06:06:51;;;;;;;3.63;2.28;;;7.10;98.40;;;;;;6121081;23;20006;-65
2023/12/14 06:09:19;;;;;;;3.53;2.60;;;7.10;98.40;;;;;;6095300;23;20469;-66
2023/12/14 06:11:44;;;;;;;3.00;1.92;;;7.10;98.30;;;;;;6123076;23;20486;-65
2023/12/14 06:14:10;;;;;;;3.85;2.30;;;7.10;98.40;;;;;;6122641;23;20006;-65
2023/12/14 06:16:36;;;;;;;3.72;2.20;;;7.20;98.30;;;;;;6120810;23;20014;-66
2023/12/14 06:19:01;;;;;;;3.08;2.10;;;7.20;98.20;;;;;;6120315;23;20006;-67
2023/12/14 06:21:28;;;;;;;3.25;1.92;;;7.20;98.10;;;;;;6094873;23;20010;-65
2023/12/14 06:23:55;;;;;;;4.88;2.80;;;7.20;98.10;;;;;;6121859;23;20025;-66
2023/12/14 06:26:20;;;;;;;4.57;2.47;;;7.10;98.10;;;;;;6121172;23;20034;-65
2023/12/14 06:28:46;;;;;;;3.97;2.30;;;7.10;98.10;;;;;;6120964;23;20496;-63
2023/12/14 06:31:15;;;;;;;3.45;2.30;;;7.10;98.00;;;;;;6121494;23;20081;-66
2023/12/14 06:33:41;;;;;;;4.47;2.50;;;7.10;98.00;;;;;;6119640;23;20013;-67
2023/12/14 06:36:08;;;;;;;3.83;2.53;;;7.00;97.90;;;;;;6120542;23;20002;-67
2023/12/14 06:38:34;;;;;;;3.50;1.90;;;7.00;97.90;;;;;;6095539;23;20052;-66
2023/12/14 06:41:02;;;;;;;4.18;2.50;;;7.00;98.00;;;;;;6121384;23;20076;-66
2023/12/14 06:43:27;;;;;;;2.53;1.75;;;7.00;98.00;;;;;;6122201;23;20343;-67
2023/12/14 06:45:53;;;;;;;2.35;1.70;;;6.90;97.90;;;;;;6121089;23;20005;-67
2023/12/14 06:48:19;;;;;;;2.22;1.55;;;6.90;97.80;;;;;;6120813;23;20081;-66
2023/12/14 06:50:45;;;;;;;2.05;1.40;;;7.00;97.90;;;;;;6121107;23;20002;-66
2023/12/14 06:53:11;;;;;;;2.78;1.70;;;6.90;97.80;;;;;;6118080;23;20017;-67
2023/12/14 06:55:36;;;;;;;2.72;1.77;;;6.90;97.80;;;;;;6121848;23;20053;-64
2023/12/14 06:58:02;;;;;;;2.13;1.50;;;6.90;97.80;;;;;;6120588;23;20005;-67
2023/12/14 07:00:29;;;;;;;2.22;1.70;;;6.90;97.80;;;;;;6121100;23;20002;-66
2023/12/14 07:02:55;;;;;;;2.60;1.80;;;6.90;97.80;;;;;;6120690;23;20022;-65
2023/12/14 07:05:20;;;;;;;2.47;1.90;;;7.00;97.80;;;;;;6120231;23;20002;-65
2023/12/14 07:07:46;;;;;;;2.45;1.67;;;7.00;97.60;;;;;;6120053;23;19998;-67
2023/12/14 07:10:11;;;;;;;1.95;1.50;;;7.00;97.60;;;;;;6120436;23;20057;-67
2023/12/14 07:12:37;;;;;;;2.05;1.45;;;7.00;97.70;;;;;;6120080;23;20070;-66
2023/12/14 07:15:03;;;;;;;2.00;1.50;;;7.00;97.60;;;;;;6120594;23;20145;-66
2023/12/14 07:17:28;;;;;;;1.95;1.50;;;7.00;97.50;;;;;;6120781;23;20002;-66
2023/12/14 07:19:54;;;;;;;1.67;1.30;;;7.00;97.50;;;;;;6094499;23;20093;-66
2023/12/14 07:22:19;;;;;;;1.48;1.35;;;7.00;97.50;;;;;;6119742;23;20025;-66
2023/12/14 07:24:45;;;;;;;2.30;1.65;;;7.10;97.50;;;;;;6121489;23;20053;-66
2023/12/14 07:27:10;;;;;;;2.05;1.70;;;7.00;97.40;;;;;;6121356;23;20446;-66
2023/12/14 07:29:36;;;;;;;3.25;1.80;;;7.00;97.30;;;;;;6119628;23;20059;-65
2023/12/14 07:32:02;;;;;;;2.30;1.60;;;7.00;97.40;;;;;;6120231;23;20121;-67
2023/12/14 07:34:28;;;;;;;2.67;1.75;;;6.90;97.30;;;;;;6121225;23;19998;-66
2023/12/14 07:36:54;;;;;;;2.00;1.48;;;6.90;97.30;;;;;;6123014;23;20002;-66
2023/12/14 07:39:19;;;;;;;2.20;1.60;;;6.90;97.40;;;;;;6122476;23;20073;-65
2023/12/14 07:41:45;;;;;;;1.55;1.33;;;6.90;97.40;;;;;;6123114;23;20352;-64
2023/12/14 07:44:10;;;;;;;2.10;1.63;;;6.90;97.40;;;;;;6122666;23;20009;-66
2023/12/14 07:46:39;;;;;;;2.17;1.75;;;6.90;97.40;;;;;;6123174;23;20025;-66
2023/12/14 07:49:05;;;;;;;2.35;1.67;;;6.90;97.40;;;;;;6094847;23;20030;-65
2023/12/14 07:51:30;;;;;;;2.88;1.88;;;6.90;97.40;;;;;;6123074;23;20013;-66
2023/12/14 07:53:56;;;;;;;3.17;1.98;;;6.80;97.30;;;;;;6122855;23;20002;-66
2023/12/14 07:56:25;;;;;;;2.10;1.50;;;6.90;97.30;;;;;;6096664;23;20105;-66
2023/12/14 07:58:51;;;;;;;2.58;1.70;;;6.80;97.30;;;;;;6121655;23;20077;-67
2023/12/14 08:01:16;;;;;;;2.80;1.83;;;6.80;97.30;;;;;;6093730;23;20443;-67
2023/12/14 08:03:42;;;;;;;2.00;1.55;;;6.80;97.30;;;;;;6122763;23;20331;-65
2023/12/14 08:06:07;;;;;;;2.30;1.60;;;6.80;97.20;;;;;;6122027;23;20010;-67
2023/12/14 08:08:33;;;;;;;2.33;1.70;;;6.80;97.20;;;;;;6122976;23;20005;-66
2023/12/14 08:10:58;;;;;;;1.55;1.27;;;6.90;97.30;;;;;;6096263;23;20141;-66
2023/12/14 08:13:24;;;;;;;1.30;1.20;;;6.90;97.30;;;;;;6122763;23;20021;-64
2023/12/14 08:15:49;;;;;;;3.17;2.00;;;6.90;97.20;;;;;;6122944;23;20371;-66
2023/12/14 08:18:15;;;;;;;2.72;1.90;;;6.90;97.00;;;;;;6120972;23;20006;-67
2023/12/14 08:20:41;;;;;;;2.15;1.80;;;6.80;96.80;;;;;;6122565;23;20453;-66
2023/12/14 08:23:06;;;;;;;1.73;1.50;;;6.80;96.90;;;;;;6122265;23;20030;-66
2023/12/14 08:25:32;;;;;;;1.95;1.70;;;6.90;97.00;;;;;;6096170;23;20002;-66
2023/12/14 08:27:58;;;;;;;1.50;1.25;;;6.90;96.90;;;;;;6122138;23;20033;-66
2023/12/14 08:30:23;;;;;;;1.52;1.30;;;6.90;96.80;;;;;;6096265;23;20009;-66
2023/12/14 08:32:49;;;;;;;1.58;1.42;;;6.90;96.80;;;;;;6122526;23;20010;-67
2023/12/14 08:35:15;;;;;;;2.33;1.50;;;7.00;96.80;;;;;;6121889;23;20010;-67
2023/12/14 08:37:40;;;;;;;1.73;1.40;;;7.00;96.70;;;;;;6122436;23;20005;-66
2023/12/14 08:40:07;;;;;;;1.73;1.30;;;7.00;96.70;;;;;;6121428;23;20028;-67
2023/12/14 08:42:33;;;;;;;1.80;1.40;;;7.00;96.70;;;;;;6121713;23;20002;-66
2023/12/14 08:44:58;;;;;;;2.08;1.48;;;7.00;96.60;;;;;;6122305;23;20570;-63
2023/12/14 08:47:24;;;;;;;2.75;1.70;;;7.00;96.50;;;;;;6122400;23;20034;-66
2023/12/14 08:49:50;;;;;;;1.90;1.40;;;7.00;96.60;;;;;;6095905;23;20588;-65
2023/12/14 08:52:16;;;;;;;1.90;1.42;;;7.00;96.60;;;;;;6122206;23;20005;-66
2023/12/14 08:54:45;;;;;;;1.58;1.48;;;7.00;96.60;;;;;;6122240;23;20391;-66
2023/12/14 08:57:11;;;;;;;1.40;1.30;;;7.00;96.50;;;;;;6122280;23;20010;-67
2023/12/14 08:59:37;;;;;;;1.92;1.50;;;7.10;96.50;;;;;;6121653;23;20084;-66
2023/12/14 09:02:03;;;;;;;2.45;1.60;;;7.00;96.70;;;;;;6121547;23;20005;-66
2023/12/14 09:04:28;;;;;;;1.88;1.42;;;7.00;96.40;;;;;;6122165;23;20024;-65
2023/12/14 09:06:54;;;;;;;1.88;1.50;;;7.00;96.50;;;;;;6122689;23;20002;-67
2023/12/14 09:09:19;;;;;;;1.77;1.33;;;7.00;96.50;;;;;;6121420;23;20057;-67
2023/12/14 09:11:45;;;;;;;1.92;1.30;;;7.00;96.50;;;;;;6121954;23;20006;-67
2023/12/14 09:14:11;;;;;;;1.75;1.50;;;7.00;96.40;;;;;;6122202;23;20312;-64
2023/12/14 09:16:36;;;;;;;2.13;1.52;;;7.00;96.40;;;;;;6122771;23;20032;-67
2023/12/14 09:19:02;;;;;;;2.13;1.50;;;7.10;96.30;;;;;;6094547;23;20052;-66
2023/12/14 09:21:27;;;;;;;1.80;1.50;;;7.00;96.30;;;;;;6122094;23;20445;-65
2023/12/14 09:23:53;;;;;;;2.80;1.73;;;7.10;96.40;;;;;;6122490;23;20009;-65
2023/12/14 09:26:19;;;;;;;2.47;1.55;;;7.10;96.30;;;;;;6094470;23;20002;-63
2023/12/14 09:28:44;;;;;;;1.92;1.38;;;7.00;96.20;;;;;;6120215;23;20013;-67
2023/12/14 09:31:10;;;;;;;1.80;1.50;;;7.10;96.30;;;;;;6121208;23;20382;-66
2023/12/14 09:33:36;;;;;;;1.95;1.30;;;7.10;96.30;;;;;;6121938;23;20006;-67
2023/12/14 09:36:02;;;;;;;1.92;1.50;;;7.10;96.20;;;;;;6121554;23;20008;-66
2023/12/14 09:38:28;;;;;;;2.47;1.50;;;7.10;96.30;;;;;;6118866;23;20009;-66
2023/12/14 09:40:54;;;;;;;1.73;1.35;;;7.10;96.30;;;;;;6118044;23;20327;-64
2023/12/14 09:43:20;;;;;;;1.50;1.40;;;7.10;96.30;;;;;;6091311;23;19998;-65
2023/12/14 09:45:48;;;;;;;1.92;1.40;;;7.20;96.30;;;;;;6120711;23;20137;-67
2023/12/14 09:48:15;;;;;;;2.78;1.70;;;7.20;96.30;;;;;;6118954;23;20816;-66
2023/12/14 09:50:42;;;;;;;2.05;1.45;;;7.20;96.20;;;;;;6118745;23;20057;-66
2023/12/14 09:53:08;;;;;;;2.53;1.85;;;7.20;96.20;;;;;;6120426;23;20014;-66
2023/12/14 09:55:33;;;;;;;2.33;1.80;;;7.20;96.00;;;;;;6121251;23;20002;-66
2023/12/14 09:58:00;;;;;;;2.63;1.60;;;7.20;96.00;;;;;;6121384;23;20009;-65
2023/12/14 10:00:40;;;;;;;1.90;1.58;;;7.20;95.90;;;;;;6118848;23;20065;-65
2023/12/14 10:03:22;;;;;;;2.10;1.67;;;7.20;96.00;;;;;;6118696;23;20600;-67
2023/12/14 10:05:48;;;;;;;;;;;7.10;95.90;;;;;;6119791;23;19998;-65
2023/12/14 10:08:17;;;;;;;2.30;1.58;;;7.10;95.90;;;;;;6118551;23;20210;-65
2023/12/14 10:10:44;;;;;;;1.95;1.48;;;7.10;96.10;;;;;;6120650;23;20076;-66
2023/12/14 10:13:10;;;;;;;2.95;1.50;;;7.10;96.20;;;;;;6094441;23;20002;-65
2023/12/14 10:15:46;;;;;;;2.20;1.70;;;7.10;96.20;;;;;;6121896;23;20410;-66
2023/12/14 10:18:21;;;;;;;1.63;1.48;;;7.20;96.10;;;;;;6121062;23;20009;-65
2023/12/14 10:20:46;;;;;;;2.88;1.92;;;7.20;96.00;;;;;;6121311;23;20085;-65
2023/12/14 10:23:13;;;;;;;1.92;1.63;;;7.20;95.90;;;;;;6120649;23;20025;-65
2023/12/14 10:25:38;;;;;;;1.75;1.40;;;7.20;95.90;;;;;;6121513;23;20391;-65
2023/12/14 10:28:04;;;;;;;2.60;1.70;;;7.20;96.00;;;;;;6120708;23;20006;-67
2023/12/14 10:30:30;;;;;;;1.77;1.58;;;7.20;96.00;;;;;;6121157;23;20492;-67
2023/12/14 10:32:57;;;;;;;1.85;1.40;;;7.30;96.00;;;;;;6094680;23;20012;-66
2023/12/14 10:35:23;;;;;;;2.38;1.58;;;7.30;95.90;;;;;;6118992;23;20040;-65
2023/12/14 10:37:52;;;;;;;1.60;1.40;;;7.40;95.90;;;;;;6121263;23;20559;-64
2023/12/14 10:40:18;;;;;;;2.90;1.70;;;7.40;95.70;;;;;;6093789;23;20142;-66
2023/12/14 10:42:44;;;;;;;3.25;2.05;;;7.50;95.70;;;;;;6119955;23;20450;-66
2023/12/14 10:45:16;;;;;;;3.38;2.28;;;7.40;95.60;;;;;;6119974;23;20342;-66
2023/12/14 10:47:46;;;;;;;2.65;1.83;;;7.40;95.60;;;;;;6120497;23;20057;-65
2023/12/14 10:50:12;;;;;;;2.78;1.80;;;7.30;95.60;;;;;;6117019;23;20009;-66
2023/12/14 10:52:42;;;;;;;3.78;2.10;;;7.30;95.60;;;;;;6119705;23;20006;-65
2023/12/14 10:55:14;;;;;;;3.00;1.77;;;7.30;95.50;;;;;;6119910;23;20009;-67
2023/12/14 10:57:40;;;;;;;2.63;1.70;;;7.30;95.60;;;;;;6120787;23;20008;-65
2023/12/14 11:00:08;;;;;;;2.60;1.80;;;7.30;95.60;;;;;;6119910;23;20006;-65
2023/12/14 11:02:42;;;;;;;3.03;1.80;;;7.40;95.60;;;;;;6119766;23;19998;-66
2023/12/14 11:05:11;;;;;;;2.97;1.67;;;7.40;95.60;;;;;;6119357;23;20006;-66
2023/12/14 11:07:54;;;;;;;2.00;1.50;;;7.40;95.60;;;;;;6119712;23;20006;-65
2023/12/14 11:10:28;;;;;;;1.67;1.40;;;7.50;95.60;;;;;;6121024;23;20029;-66
2023/12/14 11:13:01;;;;;;;2.33;1.50;;;7.50;95.50;;;;;;6121475;23;20057;-65
2023/12/14 11:15:33;;;;;;;2.08;1.50;;;7.60;95.40;;;;;;6122743;23;20078;-67
2023/12/14 11:18:19;;;;;;;2.03;1.45;;;7.50;95.40;;;;;;6122512;23;20006;-66
2023/12/14 11:20:44;;;;;;;2.58;1.70;;;7.60;95.70;;;;;;6121819;23;20021;-66
2023/12/14 11:23:10;;;;;;;1.52;1.33;;;7.50;95.30;;;;;;6122949;23;20002;-65
2023/12/14 11:25:37;;;;;;;2.40;1.63;;;7.50;95.30;;;;;;6122366;23;20036;-65
2023/12/14 11:28:07;;;;;;;1.92;1.50;;;7.50;95.40;;;;;;6120405;23;20060;-65
2023/12/14 11:30:33;;;;;;;2.78;1.70;;;7.50;95.50;;;;;;6095304;23;20010;-66
2023/12/14 11:32:59;;;;;;;2.42;1.77;;;7.50;95.40;;;;;;6120145;23;20002;-66
2023/12/14 11:35:24;;;;;;;2.75;1.98;;;7.60;95.40;;;;;;6121726;23;20030;-66
2023/12/14 11:37:50;;;;;;;2.55;1.77;;;7.60;95.30;;;;;;6121588;23;20006;-66
2023/12/14 11:40:22;;;;;;;2.95;1.75;;;7.60;95.30;;;;;;6120849;23;20057;-64
2023/12/14 11:43:00;;;;;;;3.80;2.00;;;7.60;95.40;;;;;;6120440;23;20010;-65
2023/12/14 11:45:26;;;;;;;2.72;1.70;;;7.60;95.30;;;;;;6120952;23;20077;-65
2023/12/14 11:47:52;;;;;;;2.65;1.85;;;7.50;95.60;;;;;;6122018;23;20009;-66
2023/12/14 11:50:18;;;;;;;2.67;1.75;;;7.50;95.40;;;;;;6120668;23;20438;-64
2023/12/14 11:52:44;;;;;;;2.28;1.70;;;7.50;95.40;;;;;;6120832;23;20009;-66
2023/12/14 11:55:14;;;;;;;2.42;1.77;;;7.50;95.40;;;;;;6115741;23;20010;-65
2023/12/14 11:57:46;;;;;;;1.73;1.48;;;7.50;95.40;;;;;;6120357;23;20016;-66
2023/12/14 12:00:12;;;;;;;3.05;1.80;;;7.60;95.40;;;;;;6094383;23;20014;-66
2023/12/14 12:02:40;;;;;;;2.92;2.00;;;7.60;95.30;;;;;;6120433;23;19998;-66
2023/12/14 12:05:13;;;;;;;2.47;1.90;;;7.60;95.30;;;;;;6120701;23;20002;-64
2023/12/14 12:07:39;;;;;;;2.45;1.80;;;7.60;95.40;;;;;;6121470;23;20056;-65
2023/12/14 12:10:06;;;;;;;3.65;2.30;;;7.60;95.30;;;;;;6120414;23;20010;-65
2023/12/14 12:12:33;;;;;;;3.47;1.75;;;7.60;95.20;;;;;;6120035;23;20194;-65
2023/12/14 12:14:59;;;;;;;2.30;1.65;;;7.60;95.20;;;;;;6120558;23;20002;-66
2023/12/14 12:17:26;;;;;;;2.45;1.80;;;7.70;95.20;;;;;;6120716;23;20016;-66
2023/12/14 12:19:51;;;;;;;2.90;2.00;;;7.70;95.10;;;;;;6119695;23;20037;-66
2023/12/14 12:22:17;;;;;;;2.90;1.98;;;7.70;95.10;;;;;;6119342;23;20506;-66
2023/12/14 12:24:42;;;;;;;2.72;1.70;;;7.70;95.00;;;;;;6120816;23;20323;-65
2023/12/14 12:27:09;;;;;;;2.90;1.83;;;7.70;95.00;;;;;;6120876;23;20013;-65
2023/12/14 12:29:34;;;;;;;3.40;1.80;;;7.70;95.00;;;;;;6119215;23;20006;-67
2023/12/14 12:32:00;;;;;;;3.08;2.17;;;7.70;95.20;;;;;;6120789;23;20040;-65
2023/12/14 12:34:26;;;;;;;3.00;2.00;;;7.70;94.90;;;;;;6119909;23;20042;-66
2023/12/14 12:36:51;;;;;;;3.00;1.85;;;7.70;94.80;;;;;;6120064;23;20005;-66
2023/12/14 12:39:17;;;;;;;3.72;2.10;;;7.80;94.80;;;;;;6116622;23;20009;-65
2023/12/14 12:41:43;;;;;;;2.53;1.80;;;7.80;94.70;;;;;;6117811;23;20012;-66
2023/12/14 12:44:09;;;;;;;3.08;1.73;;;7.80;94.60;;;;;;6118009;23;20471;-65
2023/12/14 12:46:35;;;;;;;5.50;2.80;;;7.80;94.60;;;;;;6119418;23;19998;-67
2023/12/14 12:49:02;;;;;;;3.67;2.30;;;7.80;94.50;;;;;;6119085;23;20140;-66
2023/12/14 12:51:28;;;;;;;3.67;2.47;;;7.70;94.40;;;;;;6119670;23;20009;-66
2023/12/14 12:53:58;;;;;;;2.95;2.08;;;7.70;94.40;;;;;;6120814;23;20331;-64